Henderson, Illinois
Current Conditions -  °F | °C
As of 1:55 PM on Monday 24 Nov 2014 (Local Time) from KGBG Reporting Station
Overcast Overcast  
Wind Chill: 13°   Ceiling: 1200
Heat Index: 28°   Visibility: 7mi
Dew Point: 25°   Wind: 24mph
Humidity: 90%   Direction: 260°W
Pressure: 29.61"   Gusts: 32mph
Location:  41.03°N, 90.36°W
Report Text: KGBG 241955Z AUTO 26021G28KT 7SM OVC012 M02/M04 A2961 RMK AO2 T10251039
Loading
Personal Weather Stations






























Interactive Weather Map New forecast layout! Learn more

10-Day Weather Forecast

Advertisements
Track Severe Weather on mobile